Terminal Aerodrome Forecast
Issued by NWS

Home | Current Version | Previous Version | Text Only | Print | Product List | Glossary On
Versions: 1 2 3 4 5 6 7 8 9 10 11 12 13 14 15 16 17 18 19 20 21 22 23 24 25 26 27 28 29 30 31 32
000
FTUS45 KGGW 231130
TAFGDV
TAF
KGDV 231130Z 2312/2412 05006KT 4SM BR SCT012 OVC060
     FM231800 06010KT P6SM OVC015
     FM232100 05010KT P6SM SCT023 OVC025
     FM240100 05008KT P6SM SCT030 OVC045=

USA.gov is the U.S. government's official web portal to all federal, state and local government web resources and services.